sensor_id;sensor_type;location;lat;lon;timestamp;pressure;altitude;pressure_sealevel;temperature;humidity
36898;BME280;22827;53.108;-6.738;2023-06-10T08:34:34;100037.42;;;13.60;58.15
36898;BME280;22827;53.108;-6.738;2023-06-10T08:37:02;100035.29;;;14.17;54.25
36898;BME280;22827;53.108;-6.738;2023-06-10T08:39:29;100029.90;;;15.39;51.38
36898;BME280;22827;53.108;-6.738;2023-06-10T08:42:02;100032.65;;;14.43;51.21
36898;BME280;22827;53.108;-6.738;2023-06-10T08:44:32;100038.00;;;16.69;49.42
36898;BME280;22827;53.108;-6.738;2023-06-10T08:47:00;100040.04;;;17.15;47.85
36898;BME280;22827;53.108;-6.738;2023-06-10T08:49:30;100037.78;;;16.89;49.07
36898;BME280;22827;53.108;-6.738;2023-06-10T08:52:02;100037.73;;;16.75;47.89
36898;BME280;22827;53.108;-6.738;2023-06-10T08:54:33;100040.78;;;16.97;48.75
36898;BME280;22827;53.108;-6.738;2023-06-10T08:57:01;100041.26;;;17.20;47.74
36898;BME280;22827;53.108;-6.738;2023-06-10T08:59:30;100036.91;;;17.56;47.56
36898;BME280;22827;53.108;-6.738;2023-06-10T09:01:58;100038.52;;;17.24;47.12
36898;BME280;22827;53.108;-6.738;2023-06-10T09:04:25;100042.02;;;16.97;47.01
36898;BME280;22827;53.108;-6.738;2023-06-10T09:06:53;100036.51;;;17.33;47.29
36898;BME280;22827;53.108;-6.738;2023-06-10T09:09:21;100042.80;;;16.53;46.80
36898;BME280;22827;53.108;-6.738;2023-06-10T09:11:49;100044.15;;;17.04;48.07
36898;BME280;22827;53.108;-6.738;2023-06-10T09:14:16;100047.03;;;17.39;47.15
36898;BME280;22827;53.108;-6.738;2023-06-10T09:16:44;100044.83;;;17.75;46.68
36898;BME280;22827;53.108;-6.738;2023-06-10T09:19:11;100039.28;;;17.47;46.50
36898;BME280;22827;53.108;-6.738;2023-06-10T09:21:39;100036.98;;;18.60;44.57
36898;BME280;22827;53.108;-6.738;2023-06-10T09:24:06;100032.03;;;17.76;45.58
36898;BME280;22827;53.108;-6.738;2023-06-10T09:26:34;100032.14;;;17.30;47.09
36898;BME280;22827;53.108;-6.738;2023-06-10T09:29:03;100030.42;;;17.22;49.65
36898;BME280;22827;53.108;-6.738;2023-06-10T09:31:31;100033.98;;;17.22;51.36
36898;BME280;22827;53.108;-6.738;2023-06-10T09:34:06;100033.30;;;17.37;51.88
36898;BME280;22827;53.108;-6.738;2023-06-10T09:36:33;100032.99;;;17.10;52.15
36898;BME280;22827;53.108;-6.738;2023-06-10T09:39:00;100027.77;;;17.32;51.19
36898;BME280;22827;53.108;-6.738;2023-06-10T09:41:32;100024.05;;;16.42;51.88
36898;BME280;22827;53.108;-6.738;2023-06-10T09:43:59;100022.33;;;16.65;52.67
36898;BME280;22827;53.108;-6.738;2023-06-10T09:46:31;100018.38;;;17.09;51.18
36898;BME280;22827;53.108;-6.738;2023-06-10T09:48:58;100016.96;;;16.06;53.18
36898;BME280;22827;53.108;-6.738;2023-06-10T09:51:25;100015.47;;;15.87;53.75
36898;BME280;22827;53.108;-6.738;2023-06-10T09:53:53;100017.15;;;15.73;53.56
36898;BME280;22827;53.108;-6.738;2023-06-10T09:56:21;100010.81;;;15.78;53.58
36898;BME280;22827;53.108;-6.738;2023-06-10T09:58:59;100009.25;;;15.62;54.74
36898;BME280;22827;53.108;-6.738;2023-06-10T10:01:26;100014.13;;;16.74;52.82
36898;BME280;22827;53.108;-6.738;2023-06-10T10:03:53;100012.61;;;16.51;53.02
36898;BME280;22827;53.108;-6.738;2023-06-10T10:06:20;100010.80;;;16.53;53.11
36898;BME280;22827;53.108;-6.738;2023-06-10T10:08:48;100008.89;;;17.12;52.37
36898;BME280;22827;53.108;-6.738;2023-06-10T10:11:18;100005.47;;;16.22;52.91
36898;BME280;22827;53.108;-6.738;2023-06-10T10:13:48;100004.73;;;16.32;53.91
36898;BME280;22827;53.108;-6.738;2023-06-10T10:16:18;99997.41;;;17.50;51.54
36898;BME280;22827;53.108;-6.738;2023-06-10T10:18:49;99993.82;;;17.14;51.60
36898;BME280;22827;53.108;-6.738;2023-06-10T10:21:21;99997.18;;;17.43;50.86
36898;BME280;22827;53.108;-6.738;2023-06-10T10:23:53;99996.77;;;17.38;51.40
36898;BME280;22827;53.108;-6.738;2023-06-10T10:26:26;99984.78;;;18.14;50.01
36898;BME280;22827;53.108;-6.738;2023-06-10T10:29:01;99986.64;;;17.96;50.00
36898;BME280;22827;53.108;-6.738;2023-06-10T10:31:33;99983.66;;;17.98;50.04
36898;BME280;22827;53.108;-6.738;2023-06-10T10:34:06;99982.49;;;18.38;49.64
36898;BME280;22827;53.108;-6.738;2023-06-10T10:36:34;99986.40;;;18.04;50.67
36898;BME280;22827;53.108;-6.738;2023-06-10T10:39:04;99986.02;;;18.54;49.15
36898;BME280;22827;53.108;-6.738;2023-06-10T10:41:32;99989.56;;;18.30;49.45
36898;BME280;22827;53.108;-6.738;2023-06-10T10:44:00;99991.88;;;18.09;49.35
36898;BME280;22827;53.108;-6.738;2023-06-10T10:46:28;99990.89;;;17.84;49.43
36898;BME280;22827;53.108;-6.738;2023-06-10T10:48:58;99987.41;;;17.38;49.74
36898;BME280;22827;53.108;-6.738;2023-06-10T10:51:34;99989.63;;;17.38;49.65
36898;BME280;22827;53.108;-6.738;2023-06-10T10:54:16;100004.61;;;15.75;52.69
36898;BME280;22827;53.108;-6.738;2023-06-10T10:57:10;99997.50;;;17.86;51.16
36898;BME280;22827;53.108;-6.738;2023-06-10T10:59:52;99996.91;;;17.71;49.48
36898;BME280;22827;53.108;-6.738;2023-06-10T11:02:33;99999.31;;;17.70;49.46
36898;BME280;22827;53.108;-6.738;2023-06-10T11:05:02;100001.07;;;17.83;48.42
36898;BME280;22827;53.108;-6.738;2023-06-10T11:07:30;100002.11;;;17.17;50.84
36898;BME280;22827;53.108;-6.738;2023-06-10T11:09:58;100006.41;;;16.97;51.45
36898;BME280;22827;53.108;-6.738;2023-06-10T11:12:26;100011.39;;;16.31;52.11
36898;BME280;22827;53.108;-6.738;2023-06-10T11:15:06;100010.89;;;16.98;51.02
36898;BME280;22827;53.108;-6.738;2023-06-10T11:17:33;100011.39;;;16.81;50.02
36898;BME280;22827;53.108;-6.738;2023-06-10T11:20:00;100006.96;;;16.41;50.19
36898;BME280;22827;53.108;-6.738;2023-06-10T11:22:27;100003.19;;;17.22;50.33
36898;BME280;22827;53.108;-6.738;2023-06-10T11:24:53;99997.09;;;18.18;49.70
36898;BME280;22827;53.108;-6.738;2023-06-10T11:27:21;99996.85;;;17.04;51.06
36898;BME280;22827;53.108;-6.738;2023-06-10T11:30:21;99995.20;;;17.91;49.18
36898;BME280;22827;53.108;-6.738;2023-06-10T11:32:52;99993.94;;;18.35;47.28
36898;BME280;22827;53.108;-6.738;2023-06-10T11:35:20;99990.30;;;19.02;44.91
36898;BME280;22827;53.108;-6.738;2023-06-10T11:37:50;99982.09;;;19.68;44.31
36898;BME280;22827;53.108;-6.738;2023-06-10T11:40:17;99982.14;;;20.26;42.82
36898;BME280;22827;53.108;-6.738;2023-06-10T11:42:45;99988.45;;;20.71;40.66
36898;BME280;22827;53.108;-6.738;2023-06-10T11:45:15;99985.33;;;20.76;39.79
36898;BME280;22827;53.108;-6.738;2023-06-10T11:47:55;99989.49;;;20.13;41.06
36898;BME280;22827;53.108;-6.738;2023-06-10T11:50:29;99994.05;;;19.86;40.32
36898;BME280;22827;53.108;-6.738;2023-06-10T11:52:56;99994.27;;;20.56;39.66
36898;BME280;22827;53.108;-6.738;2023-06-10T11:55:23;99997.33;;;20.74;40.23
36898;BME280;22827;53.108;-6.738;2023-06-10T11:57:50;100000.45;;;20.48;40.15
36898;BME280;22827;53.108;-6.738;2023-06-10T12:00:18;99995.87;;;20.27;39.95
36898;BME280;22827;53.108;-6.738;2023-06-10T12:02:45;99994.71;;;20.34;40.35
36898;BME280;22827;53.108;-6.738;2023-06-10T12:05:13;99995.54;;;19.35;42.49
36898;BME280;22827;53.108;-6.738;2023-06-10T12:07:40;99994.20;;;19.81;41.62
36898;BME280;22827;53.108;-6.738;2023-06-10T12:10:08;99996.27;;;21.32;39.26
36898;BME280;22827;53.108;-6.738;2023-06-10T12:12:35;99999.58;;;20.85;39.33
36898;BME280;22827;53.108;-6.738;2023-06-10T12:15:02;99997.11;;;20.64;40.09
36898;BME280;22827;53.108;-6.738;2023-06-10T12:17:37;99996.91;;;21.52;39.73
36898;BME280;22827;53.108;-6.738;2023-06-10T12:20:06;99994.30;;;20.11;41.43
36898;BME280;22827;53.108;-6.738;2023-06-10T12:22:43;100003.31;;;21.04;40.11
36898;BME280;22827;53.108;-6.738;2023-06-10T12:25:11;100005.10;;;20.02;40.36
36898;BME280;22827;53.108;-6.738;2023-06-10T12:27:39;100009.01;;;19.65;41.76
36898;BME280;22827;53.108;-6.738;2023-06-10T12:30:08;100009.74;;;19.77;41.40
36898;BME280;22827;53.108;-6.738;2023-06-10T12:32:37;100013.61;;;19.65;42.15
36898;BME280;22827;53.108;-6.738;2023-06-10T12:35:06;100015.03;;;19.96;41.47
36898;BME280;22827;53.108;-6.738;2023-06-10T12:37:34;100014.45;;;20.17;40.78
36898;BME280;22827;53.108;-6.738;2023-06-10T12:40:02;100019.13;;;19.84;39.87
36898;BME280;22827;53.108;-6.738;2023-06-10T12:42:29;100015.50;;;20.58;39.68
36898;BME280;22827;53.108;-6.738;2023-06-10T12:44:57;100013.31;;;20.38;40.56
36898;BME280;22827;53.108;-6.738;2023-06-10T12:47:29;100012.58;;;21.08;39.13
36898;BME280;22827;53.108;-6.738;2023-06-10T12:49:57;100015.32;;;20.74;40.56
36898;BME280;22827;53.108;-6.738;2023-06-10T12:52:23;100015.93;;;21.26;39.35
36898;BME280;22827;53.108;-6.738;2023-06-10T12:54:51;100017.77;;;21.79;38.55
36898;BME280;22827;53.108;-6.738;2023-06-10T12:57:18;100016.73;;;20.24;40.23
36898;BME280;22827;53.108;-6.738;2023-06-10T12:59:44;100011.02;;;20.77;39.44
36898;BME280;22827;53.108;-6.738;2023-06-10T13:02:11;100011.59;;;18.93;41.28
36898;BME280;22827;53.108;-6.738;2023-06-10T13:04:38;100011.17;;;18.73;42.35
36898;BME280;22827;53.108;-6.738;2023-06-10T13:07:05;100008.31;;;19.66;41.14
36898;BME280;22827;53.108;-6.738;2023-06-10T13:09:32;100010.67;;;20.05;41.56
36898;BME280;22827;53.108;-6.738;2023-06-10T13:11:59;100008.84;;;20.00;40.56
36898;BME280;22827;53.108;-6.738;2023-06-10T13:14:26;100018.40;;;19.76;40.70
36898;BME280;22827;53.108;-6.738;2023-06-10T13:16:53;100022.33;;;20.79;39.70
36898;BME280;22827;53.108;-6.738;2023-06-10T13:19:21;100020.57;;;19.19;41.92
36898;BME280;22827;53.108;-6.738;2023-06-10T13:21:48;100016.04;;;19.42;42.67
36898;BME280;22827;53.108;-6.738;2023-06-10T13:24:15;100013.94;;;19.43;43.96
36898;BME280;22827;53.108;-6.738;2023-06-10T13:26:43;100008.79;;;19.58;43.20
36898;BME280;22827;53.108;-6.738;2023-06-10T13:29:15;100006.19;;;19.87;42.19
36898;BME280;22827;53.108;-6.738;2023-06-10T13:31:43;100004.88;;;19.77;43.24
36898;BME280;22827;53.108;-6.738;2023-06-10T13:34:10;100007.78;;;19.63;43.00
36898;BME280;22827;53.108;-6.738;2023-06-10T13:36:37;100011.76;;;19.90;42.75
36898;BME280;22827;53.108;-6.738;2023-06-10T13:39:06;100015.62;;;20.14;42.57
36898;BME280;22827;53.108;-6.738;2023-06-10T13:41:33;100010.69;;;20.27;41.53
36898;BME280;22827;53.108;-6.738;2023-06-10T13:44:01;100007.10;;;19.84;41.51
36898;BME280;22827;53.108;-6.738;2023-06-10T13:46:29;100006.55;;;20.26;40.66
36898;BME280;22827;53.108;-6.738;2023-06-10T13:48:55;100006.14;;;20.50;40.21
36898;BME280;22827;53.108;-6.738;2023-06-10T13:51:23;100005.58;;;20.61;40.05
36898;BME280;22827;53.108;-6.738;2023-06-10T13:53:50;100008.38;;;20.59;41.19
36898;BME280;22827;53.108;-6.738;2023-06-10T13:56:18;100010.92;;;21.07;39.22
36898;BME280;22827;53.108;-6.738;2023-06-10T13:58:45;100006.97;;;21.48;38.87
36898;BME280;22827;53.108;-6.738;2023-06-10T14:01:12;100008.89;;;21.60;38.12
36898;BME280;22827;53.108;-6.738;2023-06-10T14:03:40;100007.87;;;21.93;38.42
36898;BME280;22827;53.108;-6.738;2023-06-10T14:06:07;100014.15;;;21.15;39.95
36898;BME280;22827;53.108;-6.738;2023-06-10T14:08:34;100013.71;;;21.45;38.63
36898;BME280;22827;53.108;-6.738;2023-06-10T14:11:01;100012.94;;;21.76;39.35
36898;BME280;22827;53.108;-6.738;2023-06-10T14:13:27;100007.78;;;21.17;39.30
36898;BME280;22827;53.108;-6.738;2023-06-10T14:15:55;100005.59;;;21.63;39.77
36898;BME280;22827;53.108;-6.738;2023-06-10T14:18:22;100005.80;;;21.87;40.18
36898;BME280;22827;53.108;-6.738;2023-06-10T14:20:49;100004.59;;;21.59;39.97
36898;BME280;22827;53.108;-6.738;2023-06-10T14:23:16;100007.29;;;21.30;41.19
36898;BME280;22827;53.108;-6.738;2023-06-10T14:25:43;100003.65;;;20.85;41.53
36898;BME280;22827;53.108;-6.738;2023-06-10T14:28:11;99998.51;;;20.54;42.44
36898;BME280;22827;53.108;-6.738;2023-06-10T14:30:38;99999.47;;;20.73;41.62
36898;BME280;22827;53.108;-6.738;2023-06-10T14:33:05;99998.29;;;20.22;42.74
36898;BME280;22827;53.108;-6.738;2023-06-10T14:35:32;100003.01;;;21.15;41.99
36898;BME280;22827;53.108;-6.738;2023-06-10T14:37:59;100002.27;;;20.92;40.93
36898;BME280;22827;53.108;-6.738;2023-06-10T14:40:27;100003.07;;;21.58;40.53
36898;BME280;22827;53.108;-6.738;2023-06-10T14:42:54;99998.95;;;21.44;39.17
36898;BME280;22827;53.108;-6.738;2023-06-10T14:45:21;100003.43;;;20.96;38.83
36898;BME280;22827;53.108;-6.738;2023-06-10T14:47:49;100000.02;;;21.08;39.50
36898;BME280;22827;53.108;-6.738;2023-06-10T14:50:16;99996.21;;;20.59;40.45
36898;BME280;22827;53.108;-6.738;2023-06-10T14:52:43;99996.60;;;20.19;41.18
36898;BME280;22827;53.108;-6.738;2023-06-10T14:55:11;99998.28;;;21.57;39.62
36898;BME280;22827;53.108;-6.738;2023-06-10T14:57:38;99999.69;;;21.18;39.70
36898;BME280;22827;53.108;-6.738;2023-06-10T15:00:06;99994.99;;;21.51;39.54
36898;BME280;22827;53.108;-6.738;2023-06-10T15:02:34;99985.18;;;19.75;40.46
36898;BME280;22827;53.108;-6.738;2023-06-10T15:05:02;99988.99;;;20.27;39.92
36898;BME280;22827;53.108;-6.738;2023-06-10T15:07:29;99990.92;;;20.02;41.00
36898;BME280;22827;53.108;-6.738;2023-06-10T15:09:56;99993.81;;;19.21;41.09
36898;BME280;22827;53.108;-6.738;2023-06-10T15:12:23;99996.07;;;19.22;41.46
36898;BME280;22827;53.108;-6.738;2023-06-10T15:14:50;99996.62;;;19.67;41.91
36898;BME280;22827;53.108;-6.738;2023-06-10T15:17:18;99994.09;;;19.88;41.01
36898;BME280;22827;53.108;-6.738;2023-06-10T15:19:44;99994.42;;;19.93;40.98
36898;BME280;22827;53.108;-6.738;2023-06-10T15:22:12;99997.38;;;19.81;41.03
36898;BME280;22827;53.108;-6.738;2023-06-10T15:24:39;99996.07;;;20.43;40.87
36898;BME280;22827;53.108;-6.738;2023-06-10T15:27:06;99994.90;;;21.03;39.09
36898;BME280;22827;53.108;-6.738;2023-06-10T15:29:33;99992.26;;;19.89;40.74
36898;BME280;22827;53.108;-6.738;2023-06-10T15:32:00;99994.19;;;20.69;39.11
36898;BME280;22827;53.108;-6.738;2023-06-10T15:34:27;99989.35;;;20.44;41.07
36898;BME280;22827;53.108;-6.738;2023-06-10T15:36:54;99991.40;;;19.89;40.13
36898;BME280;22827;53.108;-6.738;2023-06-10T15:39:21;99991.71;;;19.69;40.54
36898;BME280;22827;53.108;-6.738;2023-06-10T15:41:48;99996.63;;;18.89;40.51
36898;BME280;22827;53.108;-6.738;2023-06-10T15:44:15;99996.99;;;18.94;40.67
36898;BME280;22827;53.108;-6.738;2023-06-10T15:46:42;99992.99;;;18.77;41.00
36898;BME280;22827;53.108;-6.738;2023-06-10T15:49:10;99992.46;;;19.71;40.67
36898;BME280;22827;53.108;-6.738;2023-06-10T15:51:36;99990.59;;;19.25;41.00
36898;BME280;22827;53.108;-6.738;2023-06-10T15:54:03;99989.66;;;20.33;40.71
36898;BME280;22827;53.108;-6.738;2023-06-10T15:56:31;99985.96;;;20.42;40.17
36898;BME280;22827;53.108;-6.738;2023-06-10T15:58:57;99983.65;;;20.29;40.46
36898;BME280;22827;53.108;-6.738;2023-06-10T16:01:25;99983.51;;;20.60;39.62
36898;BME280;22827;53.108;-6.738;2023-06-10T16:03:52;99986.66;;;19.80;40.61
36898;BME280;22827;53.108;-6.738;2023-06-10T16:06:19;99987.55;;;20.23;39.92
36898;BME280;22827;53.108;-6.738;2023-06-10T16:08:46;99992.15;;;19.86;40.45
36898;BME280;22827;53.108;-6.738;2023-06-10T16:11:13;99992.12;;;20.04;40.67
36898;BME280;22827;53.108;-6.738;2023-06-10T16:13:40;99989.75;;;20.02;40.95
36898;BME280;22827;53.108;-6.738;2023-06-10T16:16:08;99990.87;;;19.79;40.53
36898;BME280;22827;53.108;-6.738;2023-06-10T16:18:35;99986.27;;;19.09;41.95
36898;BME280;22827;53.108;-6.738;2023-06-10T16:21:02;99986.49;;;19.38;41.92
36898;BME280;22827;53.108;-6.738;2023-06-10T16:23:29;99985.81;;;19.56;41.65
36898;BME280;22827;53.108;-6.738;2023-06-10T16:25:56;99987.41;;;19.88;41.73
36898;BME280;22827;53.108;-6.738;2023-06-10T16:28:23;99987.87;;;19.08;43.21
36898;BME280;22827;53.108;-6.738;2023-06-10T16:30:50;99978.65;;;18.96;43.00
36898;BME280;22827;53.108;-6.738;2023-06-10T16:33:17;99982.48;;;19.29;43.19
36898;BME280;22827;53.108;-6.738;2023-06-10T16:35:45;99984.83;;;18.81;43.23
36898;BME280;22827;53.108;-6.738;2023-06-10T16:38:12;99986.36;;;19.39;42.55
36898;BME280;22827;53.108;-6.738;2023-06-10T16:40:39;99983.96;;;19.68;41.97
36898;BME280;22827;53.108;-6.738;2023-06-10T16:43:07;99981.87;;;19.94;41.81
36898;BME280;22827;53.108;-6.738;2023-06-10T16:45:34;99987.43;;;19.23;42.49
36898;BME280;22827;53.108;-6.738;2023-06-10T16:48:01;99987.27;;;19.89;41.98
36898;BME280;22827;53.108;-6.738;2023-06-10T16:50:28;99982.79;;;19.99;41.25
36898;BME280;22827;53.108;-6.738;2023-06-10T16:52:56;99989.28;;;19.53;41.77
36898;BME280;22827;53.108;-6.738;2023-06-10T16:55:23;99990.89;;;19.51;41.27
36898;BME280;22827;53.108;-6.738;2023-06-10T16:57:50;99991.46;;;18.80;42.94
36898;BME280;22827;53.108;-6.738;2023-06-10T17:00:17;99985.16;;;20.01;41.77
36898;BME280;22827;53.108;-6.738;2023-06-10T17:02:44;99981.44;;;20.57;40.30
36898;BME280;22827;53.108;-6.738;2023-06-10T17:05:11;99983.32;;;19.59;42.34
36898;BME280;22827;53.108;-6.738;2023-06-10T17:07:38;99986.07;;;19.10;42.79
36898;BME280;22827;53.108;-6.738;2023-06-10T17:10:06;99985.74;;;18.63;43.64
36898;BME280;22827;53.108;-6.738;2023-06-10T17:12:33;99984.90;;;17.69;44.44
36898;BME280;22827;53.108;-6.738;2023-06-10T17:15:00;99989.64;;;18.91;43.69
36898;BME280;22827;53.108;-6.738;2023-06-10T17:17:28;99989.44;;;19.49;43.12
36898;BME280;22827;53.108;-6.738;2023-06-10T17:19:55;99989.73;;;18.23;44.20
36898;BME280;22827;53.108;-6.738;2023-06-10T17:22:22;99993.59;;;19.24;43.05
36898;BME280;22827;53.108;-6.738;2023-06-10T17:24:50;99999.50;;;18.74;43.80
36898;BME280;22827;53.108;-6.738;2023-06-10T17:27:17;100000.67;;;17.78;45.18
36898;BME280;22827;53.108;-6.738;2023-06-10T17:29:44;99998.17;;;18.44;44.27
36898;BME280;22827;53.108;-6.738;2023-06-10T17:32:11;99999.87;;;18.68;44.10
36898;BME280;22827;53.108;-6.738;2023-06-10T17:34:39;100001.03;;;18.20;44.06
36898;BME280;22827;53.108;-6.738;2023-06-10T17:37:06;100003.51;;;17.93;44.06
36898;BME280;22827;53.108;-6.738;2023-06-10T17:39:33;100008.58;;;17.60;44.51
36898;BME280;22827;53.108;-6.738;2023-06-10T17:42:00;100008.73;;;18.23;44.50
36898;BME280;22827;53.108;-6.738;2023-06-10T17:44:28;100013.07;;;17.48;45.50
36898;BME280;22827;53.108;-6.738;2023-06-10T17:46:55;100019.31;;;17.49;45.73
36898;BME280;22827;53.108;-6.738;2023-06-10T17:49:22;100022.38;;;17.61;45.74
36898;BME280;22827;53.108;-6.738;2023-06-10T17:51:49;100021.92;;;17.00;46.05
36898;BME280;22827;53.108;-6.738;2023-06-10T17:54:16;100023.25;;;17.28;46.15
36898;BME280;22827;53.108;-6.738;2023-06-10T17:56:45;100027.12;;;17.19;46.67
36898;BME280;22827;53.108;-6.738;2023-06-10T17:59:12;100021.98;;;17.77;44.90
36898;BME280;22827;53.108;-6.738;2023-06-10T18:01:40;100022.42;;;17.56;45.19
36898;BME280;22827;53.108;-6.738;2023-06-10T18:04:07;100020.73;;;18.28;44.51
36898;BME280;22827;53.108;-6.738;2023-06-10T18:06:34;100021.99;;;18.33;44.06
36898;BME280;22827;53.108;-6.738;2023-06-10T18:09:01;100022.51;;;18.67;43.56
36898;BME280;22827;53.108;-6.738;2023-06-10T18:11:29;100030.59;;;18.04;44.64
36898;BME280;22827;53.108;-6.738;2023-06-10T18:13:55;100032.78;;;18.64;43.37
36898;BME280;22827;53.108;-6.738;2023-06-10T18:16:23;100034.72;;;18.81;42.98
36898;BME280;22827;53.108;-6.738;2023-06-10T18:18:49;100033.69;;;19.21;41.82
36898;BME280;22827;53.108;-6.738;2023-06-10T18:21:17;100035.53;;;18.82;42.39
36898;BME280;22827;53.108;-6.738;2023-06-10T18:23:44;100035.22;;;20.04;41.02
36898;BME280;22827;53.108;-6.738;2023-06-10T18:26:12;100035.14;;;18.39;42.12
36898;BME280;22827;53.108;-6.738;2023-06-10T18:28:39;100035.40;;;18.77;41.80
36898;BME280;22827;53.108;-6.738;2023-06-10T18:31:05;100032.56;;;19.10;41.91
36898;BME280;22827;53.108;-6.738;2023-06-10T18:33:33;100032.31;;;18.77;42.72
36898;BME280;22827;53.108;-6.738;2023-06-10T18:36:00;100030.04;;;17.86;44.06
36898;BME280;22827;53.108;-6.738;2023-06-10T18:38:27;100033.69;;;18.40;43.27
36898;BME280;22827;53.108;-6.738;2023-06-10T18:40:54;100036.30;;;19.12;42.00
36898;BME280;22827;53.108;-6.738;2023-06-10T18:43:21;100039.89;;;19.20;42.15
36898;BME280;22827;53.108;-6.738;2023-06-10T18:45:49;100044.05;;;19.42;42.17
36898;BME280;22827;53.108;-6.738;2023-06-10T18:48:16;100049.45;;;18.89;42.35
36898;BME280;22827;53.108;-6.738;2023-06-10T18:50:44;100053.61;;;19.28;41.19
36898;BME280;22827;53.108;-6.738;2023-06-10T18:53:11;100051.89;;;20.01;41.27
36898;BME280;22827;53.108;-6.738;2023-06-10T18:55:38;100054.53;;;18.60;42.77
36898;BME280;22827;53.108;-6.738;2023-06-10T18:58:06;100050.73;;;19.08;43.03
36898;BME280;22827;53.108;-6.738;2023-06-10T19:00:33;100049.83;;;18.70;43.67
36898;BME280;22827;53.108;-6.738;2023-06-10T19:03:00;100048.16;;;18.71;43.88
36898;BME280;22827;53.108;-6.738;2023-06-10T19:05:27;100053.52;;;18.36;44.45
36898;BME280;22827;53.108;-6.738;2023-06-10T19:07:55;100057.24;;;18.44;44.23
36898;BME280;22827;53.108;-6.738;2023-06-10T19:10:22;100059.34;;;18.56;44.55
36898;BME280;22827;53.108;-6.738;2023-06-10T19:12:49;100056.22;;;18.55;45.01
36898;BME280;22827;53.108;-6.738;2023-06-10T19:15:16;100056.48;;;17.50;45.41
36898;BME280;22827;53.108;-6.738;2023-06-10T19:17:43;100055.44;;;17.95;45.11
36898;BME280;22827;53.108;-6.738;2023-06-10T19:20:10;100053.35;;;17.97;44.77
36898;BME280;22827;53.108;-6.738;2023-06-10T19:22:37;100061.54;;;17.96;45.17
36898;BME280;22827;53.108;-6.738;2023-06-10T19:25:06;100056.98;;;17.99;45.38
36898;BME280;22827;53.108;-6.738;2023-06-10T19:27:33;100057.90;;;18.26;45.26
36898;BME280;22827;53.108;-6.738;2023-06-10T19:30:01;100059.33;;;17.43;46.27
36898;BME280;22827;53.108;-6.738;2023-06-10T19:32:29;100062.35;;;17.84;46.37
36898;BME280;22827;53.108;-6.738;2023-06-10T19:34:56;100068.65;;;18.10;45.98
36898;BME280;22827;53.108;-6.738;2023-06-10T19:37:23;100068.30;;;18.30;45.28
36898;BME280;22827;53.108;-6.738;2023-06-10T19:39:50;100074.35;;;17.35;45.70
36898;BME280;22827;53.108;-6.738;2023-06-10T19:42:17;100076.29;;;17.32;46.07
36898;BME280;22827;53.108;-6.738;2023-06-10T19:44:44;100082.02;;;17.10;46.64
36898;BME280;22827;53.108;-6.738;2023-06-10T19:47:12;100084.86;;;17.55;46.88
36898;BME280;22827;53.108;-6.738;2023-06-10T19:49:39;100090.23;;;17.28;45.90
36898;BME280;22827;53.108;-6.738;2023-06-10T19:52:07;100090.21;;;17.38;45.94
36898;BME280;22827;53.108;-6.738;2023-06-10T19:54:35;100094.26;;;17.71;45.50
36898;BME280;22827;53.108;-6.738;2023-06-10T19:57:03;100100.04;;;17.91;45.68
36898;BME280;22827;53.108;-6.738;2023-06-10T19:59:31;100102.84;;;18.21;45.27
36898;BME280;22827;53.108;-6.738;2023-06-10T20:01:58;100103.75;;;17.14;46.38
36898;BME280;22827;53.108;-6.738;2023-06-10T20:04:25;100104.20;;;18.08;45.56
36898;BME280;22827;53.108;-6.738;2023-06-10T20:06:52;100106.11;;;17.89;45.40
36898;BME280;22827;53.108;-6.738;2023-06-10T20:09:19;100105.59;;;18.38;44.90
36898;BME280;22827;53.108;-6.738;2023-06-10T20:11:46;100103.66;;;17.84;45.45
36898;BME280;22827;53.108;-6.738;2023-06-10T20:14:13;100103.89;;;18.05;45.04
36898;BME280;22827;53.108;-6.738;2023-06-10T20:16:40;100104.96;;;17.74;45.60
36898;BME280;22827;53.108;-6.738;2023-06-10T20:19:08;100103.66;;;18.49;44.65
36898;BME280;22827;53.108;-6.738;2023-06-10T20:21:35;100101.83;;;18.30;44.57
36898;BME280;22827;53.108;-6.738;2023-06-10T20:24:03;100104.05;;;18.06;46.14
36898;BME280;22827;53.108;-6.738;2023-06-10T20:26:30;100099.14;;;17.76;46.46
36898;BME280;22827;53.108;-6.738;2023-06-10T20:28:59;100102.86;;;16.88;47.79
36898;BME280;22827;53.108;-6.738;2023-06-10T20:31:27;100104.74;;;17.12;48.23
36898;BME280;22827;53.108;-6.738;2023-06-10T20:33:54;100107.40;;;16.50;48.69
36898;BME280;22827;53.108;-6.738;2023-06-10T20:36:24;100111.86;;;16.38;49.72
36898;BME280;22827;53.108;-6.738;2023-06-10T20:38:51;100114.33;;;16.39;49.90
36898;BME280;22827;53.108;-6.738;2023-06-10T20:41:19;100124.00;;;16.57;50.02
36898;BME280;22827;53.108;-6.738;2023-06-10T20:43:46;100129.33;;;15.82;52.52
36898;BME280;22827;53.108;-6.738;2023-06-10T20:46:13;100134.30;;;15.76;51.72
36898;BME280;22827;53.108;-6.738;2023-06-10T20:48:39;100139.22;;;15.94;51.48
36898;BME280;22827;53.108;-6.738;2023-06-10T20:51:07;100140.07;;;15.45;52.63
36898;BME280;22827;53.108;-6.738;2023-06-10T20:53:34;100136.07;;;16.40;50.93
36898;BME280;22827;53.108;-6.738;2023-06-10T20:56:02;100139.17;;;16.65;51.18
36898;BME280;22827;53.108;-6.738;2023-06-10T20:58:29;100143.31;;;16.47;51.26
36898;BME280;22827;53.108;-6.738;2023-06-10T21:00:56;100148.16;;;16.55;50.89
36898;BME280;22827;53.108;-6.738;2023-06-10T21:03:23;100149.81;;;16.76;50.73
36898;BME280;22827;53.108;-6.738;2023-06-10T21:05:50;100153.89;;;16.17;51.03
36898;BME280;22827;53.108;-6.738;2023-06-10T21:08:17;100158.90;;;16.49;50.54
36898;BME280;22827;53.108;-6.738;2023-06-10T21:10:45;100166.93;;;16.20;51.45
36898;BME280;22827;53.108;-6.738;2023-06-10T21:13:12;100164.96;;;16.41;50.33
36898;BME280;22827;53.108;-6.738;2023-06-10T21:15:38;100165.06;;;16.51;50.57
36898;BME280;22827;53.108;-6.738;2023-06-10T21:18:06;100167.33;;;16.64;50.78
36898;BME280;22827;53.108;-6.738;2023-06-10T21:20:33;100169.32;;;16.28;50.86